Main page
METAR-TAF:

METAR-TAF

Airports :

Cornwall Airport Newquay

Newquay Cornwall, England

latitude: 50-26N, longitude: 005-00W, elevation: 119 m

Current weather observation

The report was made 30 minutes ago, at 13:20 UTC
Wind 20 kt from the South/Southeast
Temperature 17°C
Humidity 63%
Pressure 1005 hPa
Visibility 10 km or more

METAR: EGHQ 051320Z AUTO 16020KT 9999 FEW047/// 17/10 Q1005

Time: 14:50 (13:50 UTC)

Forecast

The report was made 2 hours and 54 minutes ago, at 10:56 UTC
Forecast valid from 05 at 12 UTC to 05 at 21 UTC
Wind 18 kt from the South/Southeast
Visibility 10 km or more
Scattered clouds at a height of 4000 ft
Temporary
from 05 at 12 UTC to 05 at 21 UTC
Wind 22 kt from the South/Southeast with gusts up to 32 kt
Temporary
from 05 at 17 UTC to 05 at 21 UTC
Visibility: 4000 m
Broken clouds at a height of 1200 ft
rain

TAF: EGHQ 051056Z 0512/0521 16018KT 9999 SCT040 TEMPO 0512/0521 16022G32KT TEMPO 0517/0521 4000 RA BKN012

Weather observations and forecasts of more than 4000 airports (METAR and TAF reports).

The available stations are represented by yellow and red dots on the map.

Hover mouse over dot to see the name of the station.

Then click to see weather observations and forecasts.

To change the map : click on the green buttons with a black cross to zoom in, on the green button with a dash to zoom out, or on the green arrows for adjacent maps.


METAR-TAF: